Time;durP1;ratioP1;P1;durP2;ratioP2;P2;SDS_P1;SDS_P2;PMS_P1;PMS_P2;Temp;Humidity;BMP_temperature;BMP_pressure;BME280_temperature;BME280_humidity;BME280_pressure;Samples;Min_cycle;Max_cycle;Signal;HPM_P1;HPM_P2
2022/08/17 00:00:18;;;;;;;0.50;0.50;;;25.00;59.40;;;;;;5046977;28;20025;-35
2022/08/17 00:03:04;;;;;;;0.65;0.65;;;25.00;59.40;;;;;;5046381;28;20024;-30
2022/08/17 00:05:42;;;;;;;0.77;0.70;;;25.00;59.40;;;;;;5043322;28;20033;-31
2022/08/17 00:08:09;;;;;;;0.50;0.50;;;25.00;59.40;;;;;;5042941;28;20029;-30
2022/08/17 00:10:34;;;;;;;0.50;0.50;;;25.00;59.40;;;;;;5043709;28;20022;-28
2022/08/17 00:13:07;;;;;;;0.50;0.50;;;25.00;59.30;;;;;;5031209;28;20017;-33
2022/08/17 00:15:33;;;;;;;0.93;0.40;;;25.00;59.40;;;;;;5043625;28;20071;-32
2022/08/17 00:17:59;;;;;;;0.40;0.40;;;25.00;59.40;;;;;;5045971;28;20028;-32
2022/08/17 00:20:24;;;;;;;0.52;0.52;;;25.00;59.40;;;;;;5047269;28;20032;-32
2022/08/17 00:22:55;;;;;;;0.38;0.38;;;25.00;59.40;;;;;;5046049;28;20393;-29
2022/08/17 00:25:20;;;;;;;0.50;0.50;;;24.90;59.30;;;;;;5014389;28;20504;-29
2022/08/17 00:27:46;;;;;;;0.50;0.50;;;25.00;59.40;;;;;;5045496;28;20033;-30
2022/08/17 00:30:13;;;;;;;0.50;0.50;;;24.90;59.30;;;;;;5044746;28;20473;-29
2022/08/17 00:32:43;;;;;;;0.50;0.50;;;25.00;59.40;;;;;;5044180;28;20021;-28
2022/08/17 00:35:10;;;;;;;0.40;0.40;;;25.00;59.40;;;;;;5046126;28;20087;-31
2022/08/17 00:37:36;;;;;;;0.35;0.35;;;25.00;59.40;;;;;;5045522;28;20380;-29
2022/08/17 00:40:02;;;;;;;0.43;0.43;;;24.90;59.30;;;;;;5043558;28;20056;-30
2022/08/17 00:42:27;;;;;;;0.60;0.60;;;24.90;59.30;;;;;;5045691;28;20025;-34
2022/08/17 00:44:53;;;;;;;0.50;0.50;;;25.00;59.30;;;;;;5045803;28;20395;-31
2022/08/17 00:47:18;;;;;;;0.50;0.50;;;24.90;59.30;;;;;;5046542;28;20021;-31
2022/08/17 00:49:44;;;;;;;0.55;0.55;;;24.90;59.30;;;;;;5044600;28;20025;-32
2022/08/17 00:52:15;;;;;;;0.40;0.40;;;24.90;59.30;;;;;;5047382;28;20495;-33
2022/08/17 00:54:42;;;;;;;0.40;0.40;;;24.90;59.30;;;;;;5043505;28;20591;-32
2022/08/17 00:57:17;;;;;;;0.40;0.40;;;24.90;59.30;;;;;;5030657;28;20044;-33
2022/08/17 00:59:51;;;;;;;0.40;0.40;;;24.90;59.30;;;;;;5028959;28;20048;-33
2022/08/17 01:02:18;;;;;;;;;;;24.90;59.30;;;;;;5029098;28;20739;-31
2022/08/17 01:04:44;;;;;;;1.40;0.32;;;24.90;59.30;;;;;;5047300;28;19909;-30
2022/08/17 01:07:10;;;;;;;0.40;0.40;;;24.90;59.20;;;;;;5007372;28;20072;-33
2022/08/17 01:09:36;;;;;;;0.40;0.40;;;24.90;59.40;;;;;;5013755;28;20025;-30
2022/08/17 01:12:05;;;;;;;0.40;0.40;;;24.90;59.30;;;;;;5013130;28;20044;-29
2022/08/17 01:14:30;;;;;;;0.30;0.30;;;24.90;59.30;;;;;;5044381;28;20476;-32
2022/08/17 01:16:56;;;;;;;0.55;0.55;;;24.90;59.30;;;;;;5047459;28;20032;-31
2022/08/17 01:19:28;;;;;;;0.90;0.50;;;24.90;59.30;;;;;;5012893;28;20024;-29
2022/08/17 01:22:11;;;;;;;0.40;0.40;;;24.90;59.30;;;;;;5029218;28;20112;-34
2022/08/17 01:24:40;;;;;;;0.40;0.40;;;24.90;59.40;;;;;;5030069;28;20033;-33
2022/08/17 01:27:05;;;;;;;0.30;0.30;;;24.90;59.30;;;;;;5026936;28;20040;-30
2022/08/17 01:29:31;;;;;;;0.30;0.30;;;24.90;59.30;;;;;;5046260;28;20029;-30
2022/08/17 01:31:59;;;;;;;0.30;0.30;;;24.90;59.30;;;;;;5045667;28;20033;-28
2022/08/17 01:34:24;;;;;;;0.40;0.40;;;24.90;59.30;;;;;;5045702;28;20098;-28
2022/08/17 01:36:50;;;;;;;0.32;0.32;;;24.90;59.20;;;;;;5045511;28;20112;-28
2022/08/17 01:39:21;;;;;;;0.40;0.40;;;24.90;59.30;;;;;;5045138;28;20522;-30
2022/08/17 01:41:47;;;;;;;0.50;0.50;;;24.90;59.30;;;;;;5044218;28;20033;-32
2022/08/17 01:44:14;;;;;;;0.40;0.40;;;24.90;59.20;;;;;;5024580;28;20152;-30
2022/08/17 01:46:39;;;;;;;0.43;0.43;;;24.90;59.30;;;;;;5012907;28;20076;-31
2022/08/17 01:49:06;;;;;;;0.50;0.50;;;24.90;59.30;;;;;;5045516;28;20790;-36
2022/08/17 01:51:32;;;;;;;0.30;0.30;;;24.90;59.30;;;;;;5043931;28;20634;-35
2022/08/17 01:54:00;;;;;;;0.32;0.32;;;24.90;59.90;;;;;;5045050;28;20443;-31
2022/08/17 01:56:26;;;;;;;1.30;0.30;;;24.90;59.30;;;;;;5028539;28;20407;-30
2022/08/17 01:58:51;;;;;;;0.50;0.50;;;24.90;59.30;;;;;;5025492;28;20108;-31
2022/08/17 02:01:19;;;;;;;0.43;0.43;;;24.80;59.30;;;;;;5045123;28;20160;-28
2022/08/17 02:03:45;;;;;;;0.50;0.50;;;24.80;59.30;;;;;;5049428;28;20411;-28
2022/08/17 02:06:10;;;;;;;0.43;0.43;;;24.90;59.80;;;;;;5047470;28;20630;-32
2022/08/17 02:08:36;;;;;;;0.60;0.60;;;24.80;59.10;;;;;;5049492;28;20807;-32
2022/08/17 02:11:15;;;;;;;0.60;0.60;;;24.80;59.20;;;;;;5048580;28;20032;-30
2022/08/17 02:13:42;;;;;;;0.77;0.50;;;24.80;59.20;;;;;;5049120;28;20021;-30
2022/08/17 02:16:08;;;;;;;0.40;0.40;;;24.80;59.20;;;;;;5048493;28;20025;-33
2022/08/17 02:18:33;;;;;;;0.60;0.60;;;24.80;59.90;;;;;;5049945;28;20040;-31
2022/08/17 02:20:59;;;;;;;0.40;0.40;;;24.80;59.30;;;;;;5046968;28;20033;-30
2022/08/17 02:23:26;;;;;;;0.50;0.50;;;24.80;59.10;;;;;;5048329;28;20036;-39
2022/08/17 02:25:51;;;;;;;0.40;0.40;;;24.80;59.20;;;;;;5010885;28;20029;-30
2022/08/17 02:28:17;;;;;;;0.40;0.40;;;24.80;59.10;;;;;;5014669;28;20514;-31
2022/08/17 02:30:43;;;;;;;0.70;0.70;;;24.80;59.20;;;;;;5047360;28;20483;-33
2022/08/17 02:33:09;;;;;;;0.50;0.50;;;24.70;59.20;;;;;;5047423;28;20440;-30
2022/08/17 02:35:35;;;;;;;0.50;0.50;;;24.70;59.10;;;;;;5048201;28;20060;-29
2022/08/17 02:38:02;;;;;;;0.45;0.45;;;24.70;59.10;;;;;;5044513;28;20057;-28
2022/08/17 02:40:27;;;;;;;0.57;0.57;;;24.80;59.20;;;;;;5047870;28;20068;-28
2022/08/17 02:42:53;;;;;;;0.55;0.55;;;24.70;59.10;;;;;;5046374;28;20048;-32
2022/08/17 02:45:20;;;;;;;0.47;0.47;;;24.70;59.00;;;;;;5046563;28;20021;-30
2022/08/17 02:47:46;;;;;;;0.50;0.47;;;24.70;59.10;;;;;;5049733;28;20030;-35
2022/08/17 02:50:13;;;;;;;0.68;0.68;;;24.70;59.10;;;;;;5050476;28;20388;-33
2022/08/17 02:52:39;;;;;;;0.40;0.40;;;24.70;59.20;;;;;;5046471;28;20403;-32
2022/08/17 02:55:19;;;;;;;0.40;0.40;;;24.70;59.10;;;;;;5044925;28;20060;-32
2022/08/17 02:57:45;;;;;;;0.43;0.40;;;24.70;59.00;;;;;;5047657;28;20037;-31
2022/08/17 03:00:14;;;;;;;0.40;0.40;;;24.70;59.00;;;;;;5045905;28;20021;-32
2022/08/17 03:02:40;;;;;;;0.52;0.50;;;24.70;59.00;;;;;;5047025;28;20033;-30
2022/08/17 03:05:10;;;;;;;0.50;0.50;;;24.70;59.10;;;;;;5046891;28;20040;-31
2022/08/17 03:07:37;;;;;;;0.40;0.40;;;24.70;59.10;;;;;;5047277;28;20017;-29
2022/08/17 03:10:04;;;;;;;0.40;0.40;;;24.70;59.00;;;;;;5043392;28;20021;-31
2022/08/17 03:12:31;;;;;;;0.40;0.40;;;24.70;59.00;;;;;;5049887;28;20021;-33
2022/08/17 03:14:57;;;;;;;0.47;0.47;;;24.70;59.00;;;;;;5046400;28;20484;-32
2022/08/17 03:17:22;;;;;;;0.40;0.40;;;24.70;59.10;;;;;;5046012;28;20327;-31
2022/08/17 03:19:48;;;;;;;0.40;0.40;;;24.70;59.00;;;;;;5048805;28;20107;-32
2022/08/17 03:22:14;;;;;;;0.50;0.50;;;24.70;59.00;;;;;;5047547;28;20040;-29
2022/08/17 03:24:39;;;;;;;0.40;0.40;;;24.70;59.00;;;;;;5045803;28;20045;-34
2022/08/17 03:27:05;;;;;;;0.50;0.50;;;24.70;59.00;;;;;;5048085;28;20496;-32
2022/08/17 03:29:30;;;;;;;1.65;0.40;;;24.70;59.00;;;;;;5046135;28;20107;-29
2022/08/17 03:31:56;;;;;;;0.40;0.40;;;24.70;58.90;;;;;;5043725;28;20033;-30
2022/08/17 03:34:21;;;;;;;0.40;0.40;;;24.60;58.90;;;;;;5046760;28;20100;-27
2022/08/17 03:36:47;;;;;;;0.80;0.80;;;24.70;59.00;;;;;;5047015;28;20164;-31
2022/08/17 03:39:13;;;;;;;0.52;0.52;;;24.60;59.00;;;;;;5043100;28;20048;-33
2022/08/17 03:41:38;;;;;;;0.40;0.40;;;24.70;59.00;;;;;;5031759;28;20036;-34
2022/08/17 03:44:04;;;;;;;0.30;0.30;;;24.60;58.80;;;;;;5042484;28;20096;-34
2022/08/17 03:57:26;;;;;;;0.40;0.40;;;24.60;59.00;;;;;;5048489;28;20036;-28
2022/08/17 03:59:52;;;;;;;0.47;0.47;;;24.60;58.90;;;;;;5046459;28;20021;-32
2022/08/17 04:02:36;;;;;;;0.43;0.43;;;24.60;58.90;;;;;;5048766;28;20021;-34
2022/08/17 04:05:02;;;;;;;0.30;0.30;;;24.60;59.00;;;;;;5043774;28;20087;-32
2022/08/17 04:07:28;;;;;;;0.45;0.45;;;24.60;58.90;;;;;;5046204;28;20036;-30
2022/08/17 04:09:54;;;;;;;0.40;0.40;;;24.60;59.00;;;;;;5029121;28;20029;-30
2022/08/17 04:12:23;;;;;;;0.35;0.35;;;24.60;59.00;;;;;;5048501;28;20071;-29
2022/08/17 04:14:48;;;;;;;0.30;0.30;;;24.60;59.00;;;;;;5047805;28;20116;-32
2022/08/17 04:17:14;;;;;;;0.40;0.40;;;24.60;58.90;;;;;;5046236;28;20103;-30
2022/08/17 04:19:39;;;;;;;0.40;0.40;;;24.60;59.00;;;;;;5045184;28;20480;-30
2022/08/17 04:22:05;;;;;;;0.32;0.32;;;24.60;58.90;;;;;;5045283;28;20024;-29
2022/08/17 04:24:32;;;;;;;0.40;0.40;;;24.60;59.00;;;;;;5045478;28;20551;-30
2022/08/17 04:26:57;;;;;;;0.55;0.50;;;24.60;59.00;;;;;;5044507;28;20110;-36
2022/08/17 04:29:24;;;;;;;0.50;0.50;;;24.60;58.90;;;;;;5027622;28;20389;-28
2022/08/17 04:31:51;;;;;;;1.02;0.43;;;24.60;58.90;;;;;;5045489;28;20040;-30
2022/08/17 04:34:18;;;;;;;0.52;0.52;;;24.60;59.00;;;;;;5044794;28;20112;-29
2022/08/17 04:36:43;;;;;;;0.50;0.50;;;24.60;59.70;;;;;;5044842;28;20027;-29
2022/08/17 04:39:09;;;;;;;0.50;0.50;;;24.60;58.90;;;;;;5044193;28;20037;-35
2022/08/17 04:44:19;;;;;;;0.40;0.40;;;24.50;59.00;;;;;;5044303;28;20051;-32
2022/08/17 04:46:44;;;;;;;0.35;0.35;;;24.60;59.00;;;;;;5044581;28;20025;-29
2022/08/17 04:49:10;;;;;;;0.50;0.50;;;24.60;59.00;;;;;;5046182;28;20037;-29
2022/08/17 04:51:38;;;;;;;0.40;0.40;;;24.60;59.00;;;;;;5047151;28;20064;-29
2022/08/17 04:54:09;;;;;;;0.50;0.50;;;24.60;59.00;;;;;;5045148;28;20531;-29
2022/08/17 04:56:34;;;;;;;0.40;0.40;;;24.60;59.00;;;;;;5045131;28;20031;-34
2022/08/17 04:59:03;;;;;;;0.35;0.35;;;24.60;59.00;;;;;;5047054;28;20020;-29
2022/08/17 05:01:30;;;;;;;0.30;0.30;;;24.50;58.90;;;;;;5028433;28;20036;-31
2022/08/17 05:03:58;;;;;;;0.60;0.60;;;24.60;59.00;;;;;;5043332;28;20045;-32
2022/08/17 05:06:24;;;;;;;0.43;0.43;;;24.60;59.00;;;;;;5043833;28;20041;-28
2022/08/17 05:08:49;;;;;;;0.45;0.45;;;24.50;59.00;;;;;;5044706;28;20021;-34
2022/08/17 05:11:15;;;;;;;0.40;0.40;;;24.50;59.00;;;;;;5047346;28;20048;-36
2022/08/17 05:13:40;;;;;;;0.50;0.50;;;24.50;59.00;;;;;;5044895;28;20033;-30
2022/08/17 05:16:07;;;;;;;0.40;0.40;;;24.60;59.00;;;;;;5041958;28;20021;-32
2022/08/17 05:18:33;;;;;;;1.67;0.90;;;24.50;59.10;;;;;;5046540;28;20083;-30
2022/08/17 05:20:59;;;;;;;0.85;0.68;;;24.60;59.00;;;;;;5043939;28;20451;-31
2022/08/17 05:23:25;;;;;;;0.40;0.40;;;24.50;59.00;;;;;;5044745;28;20052;-31
2022/08/17 05:25:52;;;;;;;0.40;0.40;;;24.50;59.10;;;;;;5045378;28;20017;-32
2022/08/17 05:28:18;;;;;;;0.30;0.30;;;24.50;59.10;;;;;;5043400;28;20021;-29
2022/08/17 05:30:44;;;;;;;0.68;0.43;;;24.50;59.10;;;;;;5043856;28;20025;-31
2022/08/17 05:33:15;;;;;;;0.50;0.50;;;24.50;59.80;;;;;;5045113;28;20021;-31
2022/08/17 05:35:45;;;;;;;0.40;0.40;;;24.50;59.20;;;;;;5046522;28;20090;-30
2022/08/17 05:38:12;;;;;;;0.50;0.50;;;24.50;59.10;;;;;;5046544;28;20021;-30
2022/08/17 05:40:37;;;;;;;0.40;0.40;;;24.50;59.10;;;;;;5050806;28;20036;-30
2022/08/17 05:43:10;;;;;;;0.38;0.38;;;24.50;59.20;;;;;;5050044;28;20029;-28
2022/08/17 05:45:40;;;;;;;0.50;0.50;;;24.50;59.20;;;;;;5048531;28;20029;-28
2022/08/17 05:48:06;;;;;;;0.50;0.50;;;24.50;59.20;;;;;;5050942;28;20020;-28
2022/08/17 05:51:09;;;;;;;1.40;0.38;;;24.50;59.20;;;;;;5016861;28;20040;-29
2022/08/17 05:54:17;;;;;;;0.30;0.30;;;24.50;59.20;;;;;;5032902;28;20507;-30
2022/08/17 05:56:42;;;;;;;0.43;0.43;;;24.50;59.20;;;;;;4949983;29;20031;-32
2022/08/17 05:59:08;;;;;;;0.90;0.55;;;24.50;59.20;;;;;;4951034;29;20031;-29
2022/08/17 06:02:01;;;;;;;0.50;0.50;;;24.50;59.20;;;;;;4951236;28;20122;-40
2022/08/17 06:04:45;;;;;;;1.17;0.40;;;24.50;59.30;;;;;;4948460;28;20031;-30
2022/08/17 06:07:19;;;;;;;0.40;0.40;;;24.40;59.30;;;;;;4951145;29;20035;-29
2022/08/17 06:09:54;;;;;;;0.43;0.30;;;24.50;59.40;;;;;;4934582;28;20039;-33
2022/08/17 06:12:23;;;;;;;0.47;0.28;;;24.50;59.40;;;;;;4934889;29;20035;-31
2022/08/17 06:15:00;;;;;;;0.75;0.50;;;24.50;59.30;;;;;;4950399;29;20028;-31
2022/08/17 06:17:26;;;;;;;0.40;0.40;;;24.50;59.30;;;;;;4948153;29;20199;-31
2022/08/17 06:19:58;;;;;;;0.60;0.50;;;24.50;59.40;;;;;;4918454;28;20635;-28
2022/08/17 06:22:26;;;;;;;0.40;0.40;;;24.50;59.30;;;;;;4919693;29;20031;-31
2022/08/17 06:24:55;;;;;;;0.40;0.40;;;24.50;59.30;;;;;;4935095;29;20031;-31
2022/08/17 06:27:35;;;;;;;0.50;0.50;;;24.50;59.40;;;;;;4950164;29;20171;-29
2022/08/17 06:30:07;;;;;;;0.52;0.40;;;24.50;59.50;;;;;;4950304;28;20106;-29
2022/08/17 06:32:33;;;;;;;0.40;0.40;;;24.50;59.50;;;;;;4950419;28;20040;-25
2022/08/17 06:34:59;;;;;;;0.50;0.50;;;24.50;59.40;;;;;;5033035;28;20037;-27
2022/08/17 06:37:24;;;;;;;0.35;0.35;;;24.50;59.50;;;;;;5032658;28;20078;-27
2022/08/17 06:39:59;;;;;;;0.30;0.30;;;24.50;59.40;;;;;;5046897;28;20555;-28
2022/08/17 06:42:39;;;;;;;0.50;0.50;;;24.50;59.40;;;;;;5046502;28;20108;-26
2022/08/17 06:45:34;;;;;;;0.40;0.40;;;24.50;59.40;;;;;;5046881;28;20038;-27
2022/08/17 06:48:02;;;;;;;;;;;24.50;59.50;;;;;;5032088;28;20027;-29
2022/08/17 06:50:41;;;;;;;0.30;0.30;;;24.50;59.60;;;;;;5032386;28;19923;-29
2022/08/17 06:53:17;;;;;;;0.40;0.40;;;24.50;59.60;;;;;;5029751;28;20027;-27
2022/08/17 06:55:57;;;;;;;0.40;0.40;;;24.40;59.60;;;;;;5029082;28;20040;-28
2022/08/17 06:58:23;;;;;;;0.40;0.40;;;24.50;59.60;;;;;;5032646;28;20112;-27
2022/08/17 07:00:50;;;;;;;0.20;0.20;;;24.50;59.60;;;;;;5046958;28;20500;-29
2022/08/17 07:03:54;;;;;;;0.30;0.30;;;24.50;60.30;;;;;;5033277;28;20025;-29
2022/08/17 07:06:25;;;;;;;0.40;0.40;;;24.50;59.70;;;;;;5032187;28;20041;-27
2022/08/17 07:09:04;;;;;;;1.35;0.30;;;24.50;59.70;;;;;;5047175;28;20025;-26
2022/08/17 07:11:48;;;;;;;0.50;0.40;;;24.50;59.60;;;;;;5028772;28;20029;-26
2022/08/17 07:14:37;;;;;;;0.65;0.65;;;24.50;59.60;;;;;;5048151;28;20025;-27
2022/08/17 07:17:10;;;;;;;0.40;0.40;;;24.50;59.70;;;;;;5047104;28;20067;-27
2022/08/17 07:19:39;;;;;;;0.50;0.50;;;24.50;59.70;;;;;;5046140;28;20025;-28
2022/08/17 07:22:42;;;;;;;0.43;0.43;;;24.60;59.70;;;;;;5030760;28;20040;-27
2022/08/17 07:25:09;;;;;;;0.32;0.32;;;24.70;59.50;;;;;;5048240;28;20483;-27
2022/08/17 07:27:44;;;;;;;0.32;0.32;;;24.70;59.60;;;;;;5048539;28;20029;-31
2022/08/17 07:30:24;;;;;;;0.50;0.50;;;24.70;59.50;;;;;;5046489;28;20037;-28
2022/08/17 07:32:53;;;;;;;0.40;0.40;;;24.70;59.60;;;;;;5048484;28;20057;-29
2022/08/17 07:35:27;;;;;;;0.45;0.45;;;24.60;59.70;;;;;;5047787;28;20031;-28
2022/08/17 07:38:18;;;;;;;0.47;0.40;;;24.60;59.80;;;;;;5046799;28;20056;-28
2022/08/17 07:41:02;;;;;;;1.30;0.40;;;24.60;59.80;;;;;;5047167;28;20477;-26
2022/08/17 07:43:30;;;;;;;;;;;24.60;60.00;;;;;;5044533;28;20075;-31
2022/08/17 07:49:06;;;;;;;0.45;0.40;;;24.60;60.20;;;;;;5031725;28;20039;-31
2022/08/17 07:51:34;;;;;;;0.88;0.32;;;24.60;60.20;;;;;;5047375;28;20035;-29
2022/08/17 07:54:05;;;;;;;0.50;0.50;;;24.60;60.20;;;;;;5046895;28;20021;-28
2022/08/17 07:56:35;;;;;;;0.50;0.50;;;24.60;60.20;;;;;;5030856;28;20028;-26
2022/08/17 07:59:09;;;;;;;0.50;0.40;;;24.60;60.30;;;;;;5046222;28;20025;-30
2022/08/17 08:01:36;;;;;;;0.30;0.30;;;24.60;60.20;;;;;;5046344;28;20017;-27
2022/08/17 08:04:21;;;;;;;0.38;0.38;;;24.60;60.30;;;;;;5028970;28;20037;-28
2022/08/17 08:06:49;;;;;;;0.47;0.47;;;24.60;60.10;;;;;;5028477;28;20048;-28
2022/08/17 08:09:31;;;;;;;0.47;0.47;;;24.60;60.40;;;;;;5029505;28;20116;-28
2022/08/17 08:11:58;;;;;;;0.50;0.50;;;24.60;60.20;;;;;;5046979;28;20025;-28
2022/08/17 08:14:29;;;;;;;0.50;0.50;;;24.60;60.20;;;;;;5045769;28;20028;-28
2022/08/17 08:17:05;;;;;;;0.40;0.40;;;24.60;60.30;;;;;;5046571;28;20028;-26
2022/08/17 08:19:31;;;;;;;0.50;0.50;;;24.60;60.30;;;;;;5046764;28;20760;-26
2022/08/17 08:22:15;;;;;;;0.40;0.40;;;24.60;61.20;;;;;;5029851;28;20051;-29
2022/08/17 08:24:44;;;;;;;;;;;24.60;60.70;;;;;;5029083;28;20029;-31
2022/08/17 08:27:43;;;;;;;0.38;0.30;;;24.60;60.70;;;;;;5048269;28;19958;-29
2022/08/17 08:30:17;;;;;;;0.43;0.43;;;24.60;60.70;;;;;;5028953;28;20108;-30
2022/08/17 08:33:04;;;;;;;0.40;0.40;;;24.60;60.60;;;;;;5030851;28;20029;-28
2022/08/17 08:35:39;;;;;;;0.30;0.30;;;24.60;60.70;;;;;;5046334;28;20049;-26
2022/08/17 08:38:29;;;;;;;0.30;0.30;;;24.60;60.60;;;;;;5029950;28;20031;-29
2022/08/17 08:41:25;;;;;;;0.30;0.30;;;24.60;60.80;;;;;;5030805;28;20031;-27
2022/08/17 08:44:24;;;;;;;0.35;0.35;;;24.60;60.60;;;;;;5045600;28;20031;-27
2022/08/17 08:47:13;;;;;;;0.43;0.30;;;24.60;60.60;;;;;;5046344;28;20442;-27
2022/08/17 08:49:54;;;;;;;0.40;0.28;;;24.60;60.60;;;;;;5046476;28;20123;-27
2022/08/17 08:52:43;;;;;;;0.40;0.40;;;24.60;60.60;;;;;;5044770;28;20025;-31
2022/08/17 08:55:20;;;;;;;0.50;0.50;;;24.60;60.60;;;;;;5030393;28;20021;-28
2022/08/17 08:58:07;;;;;;;0.30;0.30;;;24.60;60.60;;;;;;5011442;28;20029;-26
2022/08/17 09:00:34;;;;;;;0.25;0.25;;;24.50;60.60;;;;;;5029282;28;20496;-32
2022/08/17 09:03:21;;;;;;;1.08;0.40;;;24.50;60.50;;;;;;5014125;28;20032;-30
2022/08/17 09:05:56;;;;;;;0.40;0.40;;;24.60;60.50;;;;;;5046389;28;20033;-27
2022/08/17 09:08:32;;;;;;;0.32;0.32;;;24.50;60.50;;;;;;5042778;28;20491;-29
2022/08/17 09:11:09;;;;;;;0.43;0.43;;;24.50;60.50;;;;;;5030324;28;20120;-30
2022/08/17 09:13:44;;;;;;;0.30;0.30;;;24.50;60.50;;;;;;5042818;28;20025;-27
2022/08/17 09:16:28;;;;;;;0.47;0.40;;;24.60;60.50;;;;;;5045025;28;20025;-26
2022/08/17 09:19:03;;;;;;;0.40;0.40;;;24.50;60.50;;;;;;5012486;28;20032;-27
2022/08/17 09:21:58;;;;;;;0.45;0.40;;;24.60;60.50;;;;;;5029619;28;20029;-26
2022/08/17 09:24:30;;;;;;;0.20;0.20;;;24.60;60.40;;;;;;5032559;28;20491;-27
2022/08/17 09:27:13;;;;;;;0.32;0.32;;;24.50;60.40;;;;;;5041278;28;20017;-29
2022/08/17 09:29:45;;;;;;;0.30;0.30;;;24.60;60.50;;;;;;5046158;28;20032;-29
2022/08/17 09:32:23;;;;;;;0.30;0.30;;;24.60;60.50;;;;;;5029496;28;20029;-30
2022/08/17 09:34:52;;;;;;;0.40;0.40;;;24.50;60.50;;;;;;5027875;28;20024;-29
2022/08/17 09:37:18;;;;;;;1.30;0.40;;;24.60;60.50;;;;;;5029676;28;20017;-29
2022/08/17 09:40:07;;;;;;;0.40;0.40;;;24.60;60.60;;;;;;5042650;28;20141;-26
2022/08/17 09:42:44;;;;;;;0.30;0.30;;;24.60;60.50;;;;;;5045724;28;20095;-26
2022/08/17 09:45:48;;;;;;;0.50;0.50;;;24.50;61.30;;;;;;5022542;28;20052;-31
2022/08/17 09:48:16;;;;;;;0.52;0.22;;;24.60;60.70;;;;;;5030258;28;20123;-30
2022/08/17 09:50:52;;;;;;;0.30;0.30;;;24.50;60.50;;;;;;5046425;28;20040;-27
2022/08/17 09:53:18;;;;;;;0.40;0.40;;;24.50;60.60;;;;;;5045522;28;20480;-28
2022/08/17 09:56:04;;;;;;;0.30;0.30;;;24.60;60.60;;;;;;5045494;28;20044;-27
2022/08/17 09:58:43;;;;;;;0.30;0.30;;;24.60;60.60;;;;;;5044220;28;20025;-31
2022/08/17 10:01:19;;;;;;;0.40;0.40;;;24.60;60.60;;;;;;5028564;28;20119;-32
2022/08/17 10:03:57;;;;;;;0.30;0.30;;;24.60;60.60;;;;;;5045633;28;20104;-28
2022/08/17 10:06:29;;;;;;;0.38;0.38;;;24.60;60.60;;;;;;5013312;28;20033;-25
2022/08/17 10:09:07;;;;;;;0.30;0.28;;;24.60;61.40;;;;;;5028334;28;20483;-28
2022/08/17 10:14:52;;;;;;;0.50;0.50;;;24.60;60.80;;;;;;5032402;28;20040;-27
2022/08/17 10:17:19;;;;;;;0.30;0.30;;;24.60;60.70;;;;;;5028434;28;20017;-26
2022/08/17 10:19:55;;;;;;;0.40;0.40;;;24.60;60.70;;;;;;5029029;28;21867;-31
2022/08/17 10:28:04;;;;;;;0.40;0.40;;;24.50;60.80;;;;;;5033535;28;20098;-27
2022/08/17 10:30:31;;;;;;;0.40;0.40;;;24.50;60.80;;;;;;5014160;28;20082;-29
2022/08/17 10:33:05;;;;;;;0.40;0.30;;;24.50;60.90;;;;;;5015761;28;20533;-28
2022/08/17 10:35:41;;;;;;;0.25;0.25;;;24.60;60.80;;;;;;5031151;28;20113;-26
2022/08/17 10:38:35;;;;;;;0.20;0.20;;;24.60;60.80;;;;;;5027995;28;20040;-27
2022/08/17 10:41:22;;;;;;;0.20;0.20;;;24.60;60.90;;;;;;5032110;28;20372;-26
2022/08/17 10:44:03;;;;;;;0.73;0.43;;;24.60;61.20;;;;;;5030927;28;20157;-26
2022/08/17 10:46:45;;;;;;;0.30;0.30;;;24.60;61.30;;;;;;5048339;28;20032;-29
2022/08/17 10:49:17;;;;;;;0.30;0.30;;;24.60;61.20;;;;;;5049137;28;20025;-31
2022/08/17 10:51:46;;;;;;;0.30;0.30;;;24.50;61.20;;;;;;5047068;28;20087;-29
2022/08/17 10:54:24;;;;;;;0.30;0.30;;;24.60;61.30;;;;;;5049335;28;20130;-29
2022/08/17 10:56:54;;;;;;;0.40;0.40;;;24.60;61.30;;;;;;5049814;28;20502;-27
2022/08/17 10:59:35;;;;;;;0.30;0.30;;;24.50;61.40;;;;;;5048463;28;20025;-30
2022/08/17 11:02:03;;;;;;;0.30;0.30;;;24.60;61.60;;;;;;5048656;28;20021;-27
2022/08/17 11:04:50;;;;;;;0.30;0.30;;;24.60;61.60;;;;;;5049732;28;20021;-26
2022/08/17 11:07:43;;;;;;;0.55;0.55;;;24.60;61.70;;;;;;5046276;28;20446;-29
2022/08/17 11:10:18;;;;;;;0.40;0.40;;;24.60;61.60;;;;;;5032463;28;20411;-30
2022/08/17 11:13:04;;;;;;;0.55;0.40;;;24.60;61.70;;;;;;5048664;28;20075;-28
2022/08/17 11:15:49;;;;;;;0.30;0.30;;;24.60;61.70;;;;;;5030736;28;20020;-29
2022/08/17 11:18:37;;;;;;;0.57;0.32;;;24.60;61.70;;;;;;5047197;28;20025;-28
2022/08/17 11:21:24;;;;;;;0.28;0.28;;;24.50;61.70;;;;;;5032271;28;20035;-26
2022/08/17 11:23:58;;;;;;;0.30;0.30;;;24.50;61.70;;;;;;5048170;28;20040;-28
2022/08/17 11:26:31;;;;;;;0.28;0.28;;;24.60;61.80;;;;;;5046802;28;20466;-29
2022/08/17 11:29:04;;;;;;;0.30;0.30;;;24.60;61.90;;;;;;5031249;28;20028;-26
2022/08/17 11:31:41;;;;;;;0.40;0.40;;;24.50;61.80;;;;;;5031321;28;20444;-27
2022/08/17 11:34:12;;;;;;;0.45;0.45;;;24.50;62.00;;;;;;5047551;28;20052;-29
2022/08/17 11:37:05;;;;;;;0.52;0.30;;;24.50;62.20;;;;;;5030967;28;20029;-26
2022/08/17 11:39:39;;;;;;;0.40;0.40;;;24.50;62.20;;;;;;5046375;28;20523;-29
2022/08/17 11:42:26;;;;;;;0.30;0.30;;;24.50;62.20;;;;;;5046460;28;20059;-29
2022/08/17 11:45:02;;;;;;;0.40;0.30;;;24.50;62.20;;;;;;5031100;28;20037;-27
2022/08/17 11:53:36;;;;;;;0.30;0.30;;;24.50;62.30;;;;;;5032416;28;20039;-28
2022/08/17 11:56:08;;;;;;;0.52;0.52;;;24.50;62.10;;;;;;5047889;28;20025;-26
2022/08/17 11:58:41;;;;;;;0.40;0.40;;;24.50;62.10;;;;;;5045727;28;20092;-28
2022/08/17 12:01:22;;;;;;;0.30;0.30;;;24.60;62.10;;;;;;5047177;28;20108;-27
2022/08/17 12:03:56;;;;;;;0.43;0.40;;;24.60;62.00;;;;;;5047573;28;20333;-28
2022/08/17 12:06:43;;;;;;;0.45;0.45;;;24.60;62.00;;;;;;5017025;28;20025;-27
2022/08/17 12:09:13;;;;;;;0.30;0.30;;;24.60;61.90;;;;;;5029823;28;20029;-28
2022/08/17 12:11:52;;;;;;;0.43;0.43;;;24.60;62.10;;;;;;5043082;28;20522;-28
2022/08/17 12:14:25;;;;;;;0.30;0.30;;;24.60;61.80;;;;;;5028002;28;20373;-29
2022/08/17 12:17:01;;;;;;;0.40;0.40;;;24.60;61.70;;;;;;5026671;28;20541;-32
2022/08/17 12:19:28;;;;;;;0.30;0.30;;;24.60;61.70;;;;;;5046210;28;20025;-28
2022/08/17 12:22:18;;;;;;;0.30;0.30;;;24.60;61.60;;;;;;5030379;28;20108;-29
2022/08/17 12:25:18;;;;;;;0.30;0.30;;;24.60;61.50;;;;;;5032077;28;20017;-28
2022/08/17 12:27:46;;;;;;;0.40;0.40;;;24.60;61.50;;;;;;5031942;28;20407;-40
2022/08/17 12:30:14;;;;;;;0.30;0.30;;;24.60;61.40;;;;;;5031532;28;20078;-40
2022/08/17 12:32:39;;;;;;;0.47;0.47;;;24.60;61.40;;;;;;5044347;28;20032;-40
2022/08/17 12:35:16;;;;;;;0.43;0.30;;;24.70;61.50;;;;;;5013983;28;20033;-42
2022/08/17 12:37:44;;;;;;;0.30;0.30;;;24.60;61.40;;;;;;5029325;28;20029;-38
2022/08/17 12:40:18;;;;;;;0.40;0.40;;;24.70;61.40;;;;;;5030865;28;20053;-38
2022/08/17 12:42:53;;;;;;;0.30;0.30;;;24.70;61.40;;;;;;5029065;28;20061;-40
2022/08/17 12:45:40;;;;;;;1.38;0.30;;;24.70;61.50;;;;;;5048130;28;20103;-40
2022/08/17 12:48:08;;;;;;;0.20;0.20;;;24.70;61.40;;;;;;5046280;28;20041;-40
2022/08/17 12:50:40;;;;;;;0.30;0.30;;;24.70;61.30;;;;;;5047622;28;20029;-40
2022/08/17 12:53:19;;;;;;;0.30;0.30;;;24.70;61.30;;;;;;5045175;28;20392;-39
2022/08/17 12:55:45;;;;;;;0.28;0.28;;;24.70;61.20;;;;;;5015040;28;20078;-41
2022/08/17 12:58:14;;;;;;;0.30;0.30;;;24.70;61.20;;;;;;5046764;28;20041;-42
2022/08/17 13:00:43;;;;;;;0.30;0.30;;;24.70;61.10;;;;;;5046089;28;20029;-39
2022/08/17 13:03:16;;;;;;;0.20;0.20;;;24.80;61.10;;;;;;5009707;28;20068;-41
2022/08/17 13:05:59;;;;;;;0.20;0.10;;;24.80;61.10;;;;;;5031121;28;20025;-40
2022/08/17 13:08:27;;;;;;;0.40;0.30;;;24.80;60.90;;;;;;5030049;28;20036;-41
2022/08/17 13:11:01;;;;;;;0.50;0.50;;;24.80;61.10;;;;;;5044061;28;20029;-40
2022/08/17 13:13:31;;;;;;;0.20;0.20;;;24.80;60.90;;;;;;5047038;28;20676;-40
2022/08/17 13:16:15;;;;;;;0.20;0.20;;;24.80;60.90;;;;;;5044536;28;20040;-40
2022/08/17 13:18:45;;;;;;;0.20;0.20;;;24.80;60.90;;;;;;5045907;28;20029;-41
2022/08/17 13:21:29;;;;;;;0.30;0.30;;;24.80;60.80;;;;;;5046811;28;20029;-43
2022/08/17 13:23:55;;;;;;;0.30;0.30;;;24.80;60.80;;;;;;5046617;28;20396;-40
2022/08/17 13:26:26;;;;;;;0.20;0.20;;;24.80;60.80;;;;;;5046445;28;20017;-40
2022/08/17 13:28:53;;;;;;;0.20;0.20;;;24.90;61.60;;;;;;5029320;28;20136;-40
2022/08/17 13:31:26;;;;;;;0.20;0.20;;;24.80;60.80;;;;;;5029415;28;20420;-41
2022/08/17 13:34:11;;;;;;;0.20;0.20;;;24.90;60.80;;;;;;5043794;28;20028;-40
2022/08/17 13:36:37;;;;;;;0.28;0.28;;;24.90;60.80;;;;;;5045985;28;20025;-40
2022/08/17 13:39:11;;;;;;;0.20;0.20;;;24.90;60.80;;;;;;5030321;28;20527;-40
2022/08/17 13:41:37;;;;;;;0.30;0.28;;;24.90;60.90;;;;;;5044361;28;20028;-40
2022/08/17 13:44:31;;;;;;;0.38;0.38;;;24.90;60.80;;;;;;5044441;28;20018;-40
2022/08/17 13:46:58;;;;;;;0.13;0.13;;;24.90;60.80;;;;;;5046506;28;20029;-38